メインページ
METAR-TAF:

METAR-TAF

空港 :

対馬空港

対馬, 日本

緯度: 34-17N, 経度: 129-20E, 海抜: 63m

現時点の気象観測

当レポートは1時間26分前の11:00(UTC)に作成
北西の風 4kt
気温 16°C
湿度 88%
気圧 1013 hPa
視程10km以上
高度2000ftの雲はほとんどない
高度8000ftの雲は散在している
高度10000ftの千切れ雲あり
小雨

METAR: RJDT 161100Z 32004KT 9999 -RA FEW020 SCT080 BKN100 16/14 Q1013

時間: 21:26 (12:26 UTC)


TAF: 見つかりません

4,000以上の空港の気象観測と天気予報(METAR報とTAF報)

利用可能な観測所は地図上に黄色い丸と赤い丸で示す。

丸の上にカーソルを重ねると観測所名を参照できる。

次にクリックすると気象観測と天気予報を参照できる。

マップの切り替え:黒色「×」印の緑ボタンをクリックして拡大、「-」印の緑ボタンをクリックして縮小、緑色の三角印をクリックして隣りの地図に切り替え


METAR-TAF: